SBOSBO BGI / TBPB
Speedbird OnlineSpeedbird Online BGI / TBPB

Sir Grantley Adams International Airport
16:35 28.6°C

Location Bridgetown, Barbados
Latitude: 13.0746002197
Longitude: -59.4925003052
Local Time 16:35 on 29 May 2024
UTC -4 hours (America/Barbados)
Currency £1 equals BBD 2.58
METAR TBPB 291900Z 08016KT 9999 VCSH BKN014 SCT034 28/26 Q1013 NOSIG
TAF TAF TBPB 291700Z 2918/3018 09020KT 9999 SCT020
Weather As Of 29 May 2024 16:04
Description Overcast clouds
Wind 30 km/h from East (77°)
Cloud Cover 94%
Precipitation Rain: none, Snow: none
Sunrise 05:30
Sunset 18:20
NOTAM 6 active NOTAM
Rotations During the last 90 days there were
92 flights from LHR
25 flights from LGW
1 flights from UVF
94 flights to LHR
24 flights to LGW
Lounges Airlines Executive Lounge , International terminal
IAM Jet Centre , Separate from main terminal - please see notes below
Web Airport Website | Wikipedia
Codes IATA: BGI
ICAO: TBPB
Altitude 52 Meter / 169 Feet
Distance 6,791 KM / 4,220 Miles
from London.
Runways
RunwayLength (m)Surface
093353Asphalt
273353Asphalt
Radio
TypeDescriptionFrequency
APPADAMS APP129.35
ARRADAMS ARR128.85
ATISATIS132.725
DEPADAMS DEP128.85
GNDADAMS GND121.9
TWRADAMS TWR118.7
Live ATC



Support Speedbird Online

© 2017-2024 Speedbird Online